createdAt,value
2023-01-21T00:01:20.273Z,-2.38
2023-01-21T00:03:47.775Z,-2.44
2023-01-21T00:06:15.579Z,-2.42
2023-01-21T00:08:43.171Z,-2.46
2023-01-21T00:11:14.755Z,-2.54
2023-01-21T00:13:44.199Z,-2.62
2023-01-21T00:16:12.603Z,-2.57
2023-01-21T00:18:40.325Z,-2.63
2023-01-21T00:21:07.919Z,-2.60
2023-01-21T00:23:35.463Z,-2.64
2023-01-21T00:26:05.346Z,-2.68
2023-01-21T00:28:35.735Z,-2.65
2023-01-21T00:31:06.386Z,-2.67
2023-01-21T00:33:34.552Z,-2.59
2023-01-21T00:36:03.666Z,-2.68
2023-01-21T00:38:32.023Z,-2.66
2023-01-21T00:41:11.009Z,-2.69
2023-01-21T00:43:39.578Z,-2.74
2023-01-21T00:46:07.473Z,-2.77
2023-01-21T00:48:35.635Z,-2.71
2023-01-21T00:51:03.792Z,-2.80
2023-01-21T00:53:33.815Z,-2.73
2023-01-21T00:56:03.263Z,-2.71
2023-01-21T00:58:31.535Z,-2.73
2023-01-21T01:01:11.036Z,-2.74
2023-01-21T01:03:39.785Z,-2.83
2023-01-21T01:06:19.574Z,-2.72
2023-01-21T01:08:47.838Z,-2.64
2023-01-21T01:11:16.243Z,-2.66
2023-01-21T01:13:44.205Z,-2.67
2023-01-21T01:16:14.899Z,-2.80
2023-01-21T01:18:43.073Z,-2.84
2023-01-21T01:21:16.164Z,-2.96
2023-01-21T01:23:44.313Z,-2.94
2023-01-21T01:26:15.017Z,-3.07
2023-01-21T01:28:43.085Z,-3.03
2023-01-21T01:31:13.696Z,-3.04
2023-01-21T01:33:41.543Z,-3.07
2023-01-21T01:36:14.065Z,-3.13
2023-01-21T01:38:41.975Z,-3.12
2023-01-21T01:41:15.760Z,-3.21
2023-01-21T01:44:25.633Z,-3.19
2023-01-21T01:46:58.703Z,-3.15
2023-01-21T01:49:26.190Z,-3.28
2023-01-21T01:51:59.170Z,-3.29
2023-01-21T01:54:41.914Z,-3.30
2023-01-21T01:57:12.836Z,-3.34
2023-01-21T01:59:41.325Z,-3.25
2023-01-21T02:02:16.700Z,-3.33
2023-01-21T02:04:54.390Z,-3.33
2023-01-21T02:07:24.929Z,-3.32
2023-01-21T02:09:53.809Z,-3.32
2023-01-21T02:12:22.503Z,-3.26
2023-01-21T02:14:50.548Z,-3.21
2023-01-21T02:17:20.787Z,-3.19
2023-01-21T02:19:48.169Z,-3.18
2023-01-21T02:22:28.128Z,-3.18
2023-01-21T02:25:32.823Z,-3.29
2023-01-21T02:28:18.860Z,-3.32
2023-01-21T02:31:24.621Z,-3.42
2023-01-21T02:34:10.566Z,-3.52
2023-01-21T02:36:54.734Z,-3.49
2023-01-21T02:39:48.708Z,-3.50
2023-01-21T02:42:46.627Z,-3.46
2023-01-21T02:45:46.773Z,-3.46
2023-01-21T02:48:19.633Z,-3.53
2023-01-21T02:50:50.812Z,-3.56
2023-01-21T02:53:27.433Z,-3.63
2023-01-21T02:55:57.657Z,-3.65
2023-01-21T02:58:29.312Z,-3.58
2023-01-21T03:01:12.372Z,-3.58
2023-01-21T03:03:46.489Z,-3.57
2023-01-21T03:07:04.396Z,-3.61
2023-01-21T03:09:33.926Z,-3.60
2023-01-21T03:12:25.792Z,-3.58
2023-01-21T03:15:29.934Z,-3.62
2023-01-21T03:18:08.980Z,-3.68
2023-01-21T03:21:02.608Z,-3.63
2023-01-21T03:23:35.818Z,-3.69
2023-01-21T03:26:05.480Z,-3.65
2023-01-21T03:28:38.724Z,-3.67
2023-01-21T03:31:13.051Z,-3.75
2023-01-21T03:33:46.795Z,-3.83
2023-01-21T03:36:26.670Z,-3.81
2023-01-21T03:38:57.887Z,-3.82
2023-01-21T03:41:33.659Z,-3.79
2023-01-21T03:44:01.350Z,-3.76
2023-01-21T03:46:44.105Z,-3.79
2023-01-21T03:49:19.292Z,-3.77
2023-01-21T03:51:52.839Z,-3.75
2023-01-21T03:54:20.234Z,-3.79
2023-01-21T03:56:47.532Z,-3.79
2023-01-21T03:59:15.124Z,-3.75
2023-01-21T04:01:42.690Z,-3.82
2023-01-21T04:04:10.363Z,-3.70
2023-01-21T04:06:37.762Z,-3.72
2023-01-21T04:09:06.782Z,-3.80
2023-01-21T04:11:34.736Z,-3.78
2023-01-21T04:14:02.581Z,-3.73
2023-01-21T04:16:30.804Z,-3.68
2023-01-21T04:18:58.394Z,-3.67
2023-01-21T04:21:25.845Z,-3.54
2023-01-21T04:23:54.070Z,-3.54
2023-01-21T04:26:21.512Z,-3.60
2023-01-21T04:28:49.015Z,-3.66
2023-01-21T04:31:16.631Z,-3.58
2023-01-21T04:33:44.215Z,-3.53
2023-01-21T04:36:11.727Z,-3.52
2023-01-21T04:38:39.399Z,-3.49
2023-01-21T04:41:06.945Z,-3.44
2023-01-21T04:43:34.474Z,-3.51
2023-01-21T04:46:02.121Z,-3.50
2023-01-21T04:48:29.702Z,-3.38
2023-01-21T04:50:57.225Z,-3.48
2023-01-21T04:53:24.950Z,-3.52
2023-01-21T04:55:52.849Z,-3.49
2023-01-21T04:58:21.167Z,-3.43
2023-01-21T05:00:48.744Z,-3.42
2023-01-21T05:03:16.563Z,-3.46
2023-01-21T05:05:44.052Z,-3.55
2023-01-21T05:08:11.620Z,-3.58
2023-01-21T05:10:39.324Z,-3.44
2023-01-21T05:13:06.844Z,-3.40
2023-01-21T05:15:34.332Z,-3.34
2023-01-21T05:18:01.878Z,-3.46
2023-01-21T05:20:29.484Z,-3.38
2023-01-21T05:22:58.026Z,-3.36
2023-01-21T05:25:25.424Z,-3.35
2023-01-21T05:27:54.804Z,-3.31
2023-01-21T05:30:22.420Z,-3.30
2023-01-21T05:32:54.326Z,-3.32
2023-01-21T05:35:23.381Z,-3.27
2023-01-21T05:37:51.074Z,-3.29
2023-01-21T05:40:19.414Z,-3.26
2023-01-21T05:42:47.444Z,-3.33
2023-01-21T05:45:15.298Z,-3.34
2023-01-21T05:47:42.964Z,-3.39
2023-01-21T05:50:11.209Z,-3.35
2023-01-21T05:52:39.103Z,-3.34
2023-01-21T05:55:06.913Z,-3.36
2023-01-21T05:57:34.870Z,-3.36
2023-01-21T06:00:02.332Z,-3.33
2023-01-21T06:02:32.361Z,-3.31
2023-01-21T06:04:59.914Z,-3.33
2023-01-21T06:07:27.367Z,-3.30
2023-01-21T06:09:54.887Z,-3.31
2023-01-21T06:12:24.663Z,-3.35
2023-01-21T06:14:52.391Z,-3.31
2023-01-21T06:17:19.886Z,-3.27
2023-01-21T06:19:47.482Z,-3.33
2023-01-21T06:22:16.598Z,-3.27
2023-01-21T06:24:44.850Z,-3.34
2023-01-21T06:27:12.731Z,-3.34
2023-01-21T06:29:40.248Z,-3.34
2023-01-21T06:32:07.948Z,-3.35
2023-01-21T06:34:35.585Z,-3.30
2023-01-21T06:37:03.074Z,-3.35
2023-01-21T06:39:30.564Z,-3.32
2023-01-21T06:41:58.021Z,-3.35
2023-01-21T06:44:25.586Z,-3.37
2023-01-21T06:47:00.658Z,-3.33
2023-01-21T06:49:28.814Z,-3.30
2023-01-21T06:51:56.634Z,-3.29
2023-01-21T06:54:24.231Z,-3.32
2023-01-21T06:56:51.743Z,-3.37
2023-01-21T06:59:19.361Z,-3.30
2023-01-21T07:01:46.850Z,-3.26
2023-01-21T07:04:14.409Z,-3.33
2023-01-21T07:06:41.903Z,-3.33
2023-01-21T07:09:09.589Z,-3.35
2023-01-21T07:11:37.128Z,-3.36
2023-01-21T07:14:04.661Z,-3.40
2023-01-21T07:16:32.128Z,-3.51
2023-01-21T07:18:59.654Z,-3.46
2023-01-21T07:21:27.160Z,-3.46
2023-01-21T07:23:55.701Z,-3.57
2023-01-21T07:26:23.596Z,-3.56
2023-01-21T07:28:51.186Z,-3.58
2023-01-21T07:31:18.716Z,-3.61
2023-01-21T07:33:46.329Z,-3.59
2023-01-21T07:36:13.792Z,-3.62
2023-01-21T07:38:41.464Z,-3.55
2023-01-21T07:41:08.940Z,-3.60
2023-01-21T07:43:36.480Z,-3.51
2023-01-21T07:46:03.943Z,-3.51
2023-01-21T07:48:31.872Z,-3.56
2023-01-21T07:51:00.143Z,-3.59
2023-01-21T07:53:27.682Z,-3.48
2023-01-21T07:55:55.171Z,-3.51
2023-01-21T07:58:22.664Z,-3.56
2023-01-21T08:00:50.174Z,-3.51
2023-01-21T08:03:20.194Z,-3.55
2023-01-21T08:05:47.802Z,-3.49
2023-01-21T08:08:15.263Z,-3.53
2023-01-21T08:10:42.810Z,-3.51
2023-01-21T08:13:10.463Z,-3.41
2023-01-21T08:15:38.056Z,-3.35
2023-01-21T08:18:05.565Z,-3.39
2023-01-21T08:20:33.623Z,-3.42
2023-01-21T08:23:01.505Z,-3.38
2023-01-21T08:25:29.010Z,-3.38
2023-01-21T08:27:59.192Z,-3.44
2023-01-21T08:30:26.840Z,-3.35
2023-01-21T08:32:54.300Z,-3.32
2023-01-21T08:35:21.973Z,-3.30
2023-01-21T08:37:49.953Z,-3.33
2023-01-21T08:40:17.557Z,-3.38
2023-01-21T08:42:45.015Z,-3.43
2023-01-21T08:45:15.327Z,-3.33
2023-01-21T08:47:42.984Z,-3.18
2023-01-21T08:50:11.103Z,-3.27
2023-01-21T08:52:39.200Z,-3.18
2023-01-21T08:55:07.057Z,-3.22
2023-01-21T08:57:34.629Z,-3.20
2023-01-21T09:00:02.170Z,-3.17
2023-01-21T09:02:29.771Z,-3.20
2023-01-21T09:04:57.255Z,-3.21
2023-01-21T09:07:24.784Z,-3.14
2023-01-21T09:09:52.239Z,-3.04
2023-01-21T09:12:19.809Z,-3.05
2023-01-21T09:14:47.303Z,-2.94
2023-01-21T09:17:14.855Z,-3.06
2023-01-21T09:19:42.295Z,-3.02
2023-01-21T09:22:09.867Z,-2.96
2023-01-21T09:24:37.430Z,-2.92
2023-01-21T09:27:07.438Z,-2.97
2023-01-21T09:29:35.210Z,-2.92
2023-01-21T09:32:03.259Z,-2.84
2023-01-21T09:34:31.983Z,-2.82
2023-01-21T09:37:00.493Z,-2.73
2023-01-21T09:39:27.933Z,-2.69
2023-01-21T09:41:58.211Z,-2.71
2023-01-21T09:44:35.096Z,-2.71
2023-01-21T09:47:21.533Z,-2.71
2023-01-21T09:49:54.421Z,-2.59
2023-01-21T09:52:36.613Z,-2.50
2023-01-21T09:55:06.553Z,-2.48
2023-01-21T09:58:09.263Z,-2.46
2023-01-21T10:01:14.863Z,-2.38
2023-01-21T10:03:53.280Z,-2.44
2023-01-21T10:06:29.660Z,-2.43
2023-01-21T10:09:12.012Z,-2.42
2023-01-21T10:11:50.575Z,-2.45
2023-01-21T10:15:04.367Z,-2.43
2023-01-21T10:18:01.484Z,-2.34
2023-01-21T10:20:34.254Z,-2.39
2023-01-21T10:23:15.056Z,-2.38
2023-01-21T10:25:43.105Z,-2.34
2023-01-21T10:28:18.562Z,-2.28
2023-01-21T10:30:50.704Z,-2.32
2023-01-21T10:33:31.254Z,-2.27
2023-01-21T10:36:21.351Z,-2.29
2023-01-21T10:38:55.081Z,-2.19
2023-01-21T10:41:25.411Z,-2.39
2023-01-21T10:44:17.604Z,-2.32
2023-01-21T10:46:57.004Z,-2.29
2023-01-21T10:54:22.759Z,-2.16
2023-01-21T10:57:05.188Z,-2.29
2023-01-21T10:59:36.148Z,-2.31
2023-01-21T11:02:10.138Z,-2.25
2023-01-21T11:04:41.054Z,-2.27
2023-01-21T11:07:12.625Z,-2.22
2023-01-21T11:09:46.740Z,-2.23
2023-01-21T11:12:21.682Z,-2.17
2023-01-21T11:14:55.693Z,-2.06
2023-01-21T11:17:38.169Z,-2.11
2023-01-21T11:20:28.046Z,-1.99
2023-01-21T11:22:55.613Z,-1.95
2023-01-21T11:25:28.341Z,-2.00
2023-01-21T11:27:55.885Z,-2.00
2023-01-21T11:30:49.625Z,-1.94
2023-01-21T11:33:27.290Z,-1.80
2023-01-21T11:35:55.991Z,-1.85
2023-01-21T11:38:25.066Z,-1.89
2023-01-21T11:41:04.584Z,-1.93
2023-01-21T11:43:35.094Z,-1.87
2023-01-21T11:46:21.070Z,-1.86
2023-01-21T11:48:48.846Z,-1.79
2023-01-21T11:51:18.061Z,-1.73
2023-01-21T11:53:46.913Z,-1.65
2023-01-21T11:56:16.731Z,-1.43
2023-01-21T11:58:44.364Z,-1.43
2023-01-21T12:01:22.182Z,-1.47
2023-01-21T12:03:53.932Z,-1.55
2023-01-21T12:06:26.432Z,-1.57
2023-01-21T12:08:58.433Z,-1.66
2023-01-21T12:11:29.587Z,-1.62
2023-01-21T12:14:24.607Z,-1.68
2023-01-21T12:16:52.109Z,-1.76
2023-01-21T12:19:51.635Z,-1.87
2023-01-21T12:22:31.183Z,-1.91
2023-01-21T12:25:29.263Z,-1.77
2023-01-21T12:28:38.858Z,-1.70
2023-01-21T12:31:15.477Z,-1.82
2023-01-21T12:34:06.162Z,-1.76
2023-01-21T12:36:43.271Z,-1.78
2023-01-21T12:39:30.079Z,-1.74
2023-01-21T12:42:03.624Z,-1.65
2023-01-21T12:44:42.899Z,-1.75
2023-01-21T12:47:20.401Z,-1.64
2023-01-21T12:50:09.524Z,-1.53
2023-01-21T12:53:09.488Z,-1.51
2023-01-21T12:56:04.718Z,-1.50
2023-01-21T12:58:40.929Z,-1.54
2023-01-21T13:01:14.479Z,-1.50
2023-01-21T13:03:48.345Z,-1.43
2023-01-21T13:06:29.724Z,-1.38
2023-01-21T13:09:57.771Z,-1.42
2023-01-21T13:12:29.742Z,-1.35
2023-01-21T13:15:02.077Z,-1.33
2023-01-21T13:17:34.116Z,-1.32
2023-01-21T13:20:13.165Z,-1.32
2023-01-21T13:22:46.904Z,-1.34
2023-01-21T13:25:26.869Z,-1.38
2023-01-21T13:28:20.413Z,-1.29
2023-01-21T13:31:06.552Z,-1.36
2023-01-21T13:34:02.880Z,-1.29
2023-01-21T13:37:21.332Z,-1.23
2023-01-21T13:39:54.647Z,-1.26
2023-01-21T13:42:59.344Z,-1.28
2023-01-21T13:45:35.633Z,-1.32
2023-01-21T13:48:12.146Z,-1.28
2023-01-21T13:50:58.372Z,-1.22
2023-01-21T13:53:38.836Z,-1.19
2023-01-21T13:56:56.360Z,-1.13
2023-01-21T13:59:31.685Z,-1.15
2023-01-21T14:02:25.178Z,-1.16
2023-01-21T14:05:07.475Z,-1.09
2023-01-21T14:07:40.864Z,-1.11
2023-01-21T14:10:18.363Z,-1.24
2023-01-21T14:13:16.704Z,-1.23
2023-01-21T14:15:47.188Z,-1.23
2023-01-21T14:18:40.929Z,-1.33
2023-01-21T14:21:22.096Z,-1.29
2023-01-21T14:24:34.491Z,-1.30
2023-01-21T14:27:46.345Z,-1.34
2023-01-21T14:30:23.504Z,-1.37
2023-01-21T14:33:15.165Z,-1.38
2023-01-21T14:35:48.743Z,-1.34
2023-01-21T14:38:34.983Z,-1.37
2023-01-21T14:41:11.493Z,-1.44
2023-01-21T14:43:40.614Z,-1.38
2023-01-21T14:46:34.244Z,-1.43
2023-01-21T14:49:12.198Z,-1.46
2023-01-21T14:51:50.252Z,-1.40
2023-01-21T14:54:26.994Z,-1.40
2023-01-21T14:57:04.158Z,-1.38
2023-01-21T14:59:41.813Z,-1.39
2023-01-21T15:02:29.957Z,-1.36
2023-01-21T15:05:00.267Z,-1.38
2023-01-21T15:07:48.834Z,-1.40
2023-01-21T15:10:25.971Z,-1.40
2023-01-21T15:13:00.413Z,-1.43
2023-01-21T15:15:35.098Z,-1.44
2023-01-21T15:18:23.714Z,-1.42
2023-01-21T15:21:00.689Z,-1.44
2023-01-21T15:23:31.226Z,-1.43
2023-01-21T15:26:05.348Z,-1.48
2023-01-21T15:28:40.497Z,-1.52
2023-01-21T15:31:11.309Z,-1.49
2023-01-21T15:33:46.526Z,-1.42
2023-01-21T15:36:31.376Z,-1.47
2023-01-21T15:39:14.171Z,-1.48
2023-01-21T15:42:00.718Z,-1.50
2023-01-21T15:44:42.618Z,-1.48
2023-01-21T15:47:28.629Z,-1.46
2023-01-21T15:50:29.938Z,-1.48
2023-01-21T15:53:03.332Z,-1.47
2023-01-21T15:55:49.139Z,-1.44
2023-01-21T15:58:22.709Z,-1.49
2023-01-21T16:01:25.863Z,-1.47
2023-01-21T16:04:27.090Z,-1.48
2023-01-21T16:07:15.504Z,-1.43
2023-01-21T16:10:01.846Z,-1.45
2023-01-21T16:12:49.631Z,-1.44
2023-01-21T16:15:26.213Z,-1.45
2023-01-21T16:18:05.654Z,-1.48
2023-01-21T16:20:34.004Z,-1.44
2023-01-21T16:23:06.051Z,-1.42
2023-01-21T16:25:33.803Z,-1.41
2023-01-21T16:28:01.275Z,-1.39
2023-01-21T16:30:31.192Z,-1.34
2023-01-21T16:33:16.432Z,-1.34
2023-01-21T16:35:53.135Z,-1.41
2023-01-21T16:38:31.989Z,-1.35
2023-01-21T16:41:08.499Z,-1.38
2023-01-21T16:43:49.548Z,-1.44
2023-01-21T16:46:19.693Z,-1.40
2023-01-21T16:48:52.584Z,-1.42
2023-01-21T16:51:23.820Z,-1.40
2023-01-21T16:54:20.114Z,-1.42
2023-01-21T16:56:55.193Z,-1.47
2023-01-21T16:59:44.725Z,-1.43
2023-01-21T17:02:33.518Z,-1.48
2023-01-21T17:05:05.297Z,-1.49
2023-01-21T17:07:38.050Z,-1.41
2023-01-21T17:10:07.231Z,-1.36
2023-01-21T17:12:36.484Z,-1.39
2023-01-21T17:15:16.609Z,-1.41
2023-01-21T17:17:44.644Z,-1.40
2023-01-21T17:21:10.853Z,-1.39
2023-01-21T17:23:38.304Z,-1.44
2023-01-21T17:26:16.712Z,-1.45
2023-01-21T17:29:03.321Z,-1.43
2023-01-21T17:31:35.351Z,-1.44
2023-01-21T17:34:07.628Z,-1.45
2023-01-21T17:36:38.326Z,-1.38
2023-01-21T17:39:07.697Z,-1.41
2023-01-21T17:41:38.016Z,-1.35
2023-01-21T17:44:16.050Z,-1.34
2023-01-21T17:46:48.938Z,-1.43
2023-01-21T17:49:26.519Z,-1.40
2023-01-21T17:51:55.548Z,-1.38
2023-01-21T17:54:29.477Z,-1.39
2023-01-21T17:56:59.061Z,-1.35
2023-01-21T17:59:34.486Z,-1.43
2023-01-21T18:02:04.594Z,-1.40
2023-01-21T18:04:32.165Z,-1.42
2023-01-21T18:06:59.821Z,-1.47
2023-01-21T18:09:28.595Z,-1.46
2023-01-21T18:11:58.175Z,-1.40
2023-01-21T18:14:26.933Z,-1.48
2023-01-21T18:16:54.978Z,-1.47
2023-01-21T18:19:32.441Z,-1.42
2023-01-21T18:22:02.567Z,-1.39
2023-01-21T18:24:30.166Z,-1.36
2023-01-21T18:27:00.265Z,-1.43
2023-01-21T18:29:30.455Z,-1.43
2023-01-21T18:31:58.981Z,-1.48
2023-01-21T18:34:26.531Z,-1.48
2023-01-21T18:36:56.284Z,-1.50
2023-01-21T18:39:24.399Z,-1.43
2023-01-21T18:41:51.872Z,-1.45
2023-01-21T18:44:19.421Z,-1.51
2023-01-21T18:46:47.997Z,-1.48
2023-01-21T18:49:17.526Z,-1.40
2023-01-21T18:51:45.883Z,-1.49
2023-01-21T18:54:14.706Z,-1.52
2023-01-21T18:56:43.037Z,-1.49
2023-01-21T18:59:15.596Z,-1.55
2023-01-21T19:01:43.998Z,-1.46
2023-01-21T19:04:15.800Z,-1.45
2023-01-21T19:06:43.906Z,-1.51
2023-01-21T19:09:29.660Z,-1.49
2023-01-21T19:11:57.153Z,-1.45
2023-01-21T19:14:24.540Z,-1.47
2023-01-21T19:16:52.116Z,-1.50
2023-01-21T19:19:20.013Z,-1.51
2023-01-21T19:21:47.654Z,-1.51
2023-01-21T19:24:15.109Z,-1.46
2023-01-21T19:26:42.875Z,-1.50
2023-01-21T19:29:15.517Z,-1.49
2023-01-21T19:31:43.141Z,-1.57
2023-01-21T19:34:10.690Z,-1.55
2023-01-21T19:36:39.994Z,-1.50
2023-01-21T19:39:15.902Z,-1.55
2023-01-21T19:41:43.688Z,-1.54
2023-01-21T19:44:11.091Z,-1.46
2023-01-21T19:46:38.869Z,-1.51
2023-01-21T19:49:17.247Z,-1.52
2023-01-21T19:51:44.853Z,-1.52
2023-01-21T19:54:12.345Z,-1.47
2023-01-21T19:56:39.843Z,-1.54
2023-01-21T19:59:07.496Z,-1.57
2023-01-21T20:01:35.102Z,-1.53
2023-01-21T20:04:02.659Z,-1.58
2023-01-21T20:06:37.290Z,-1.62
2023-01-21T20:09:05.444Z,-1.55
2023-01-21T20:11:33.955Z,-1.56
2023-01-21T20:14:01.823Z,-1.58
2023-01-21T20:16:31.300Z,-1.54
2023-01-21T20:19:02.228Z,-1.60
2023-01-21T20:21:29.803Z,-1.54
2023-01-21T20:23:57.305Z,-1.60
2023-01-21T20:26:27.410Z,-1.52
2023-01-21T20:28:55.000Z,-1.53
2023-01-21T20:31:22.643Z,-1.52
2023-01-21T20:33:50.172Z,-1.52
2023-01-21T20:36:23.927Z,-1.49
2023-01-21T20:38:52.679Z,-1.49
2023-01-21T20:41:20.310Z,-1.52
2023-01-21T20:43:47.918Z,-1.52
2023-01-21T20:46:25.912Z,-1.54
2023-01-21T20:48:53.656Z,-1.52
2023-01-21T20:51:21.466Z,-1.50
2023-01-21T20:53:49.116Z,-1.51
2023-01-21T20:56:27.081Z,-1.51
2023-01-21T20:58:54.666Z,-1.54
2023-01-21T21:01:24.906Z,-1.51
2023-01-21T21:03:53.264Z,-1.53
2023-01-21T21:06:23.406Z,-1.50
2023-01-21T21:08:51.678Z,-1.51
2023-01-21T21:11:19.345Z,-1.53
2023-01-21T21:13:49.475Z,-1.50
2023-01-21T21:16:34.102Z,-1.51
2023-01-21T21:19:01.664Z,-1.54
2023-01-21T21:21:29.064Z,-1.53
2023-01-21T21:23:56.696Z,-1.50
2023-01-21T21:26:26.735Z,-1.52
2023-01-21T21:28:55.143Z,-1.46
2023-01-21T21:31:23.845Z,-1.38
2023-01-21T21:33:51.859Z,-1.48
2023-01-21T21:36:21.850Z,-1.50
2023-01-21T21:38:50.117Z,-1.51
2023-01-21T21:41:41.124Z,-1.42
2023-01-21T21:44:09.444Z,-1.39
2023-01-21T21:46:56.057Z,-1.40
2023-01-21T21:49:24.101Z,-1.47
2023-01-21T21:51:51.861Z,-1.57
2023-01-21T21:54:19.847Z,-1.49
2023-01-21T21:56:48.008Z,-1.56
2023-01-21T21:59:15.921Z,-1.54
2023-01-21T22:01:44.560Z,-1.56
2023-01-21T22:04:12.660Z,-1.55
2023-01-21T22:06:40.492Z,-1.50
2023-01-21T22:09:08.516Z,-1.55
2023-01-21T22:11:36.034Z,-1.52
2023-01-21T22:14:04.225Z,-1.58
2023-01-21T22:16:32.988Z,-1.60
2023-01-21T22:19:01.605Z,-1.55
2023-01-21T22:21:32.900Z,-1.58
2023-01-21T22:24:02.897Z,-1.60
2023-01-21T22:26:30.631Z,-1.56
2023-01-21T22:28:58.504Z,-1.60
2023-01-21T22:31:29.583Z,-1.62
2023-01-21T22:33:58.469Z,-1.57
2023-01-21T22:36:28.515Z,-1.56
2023-01-21T22:38:56.162Z,-1.54
2023-01-21T22:41:24.937Z,-1.39
2023-01-21T22:43:53.287Z,-1.45
2023-01-21T22:46:24.269Z,-1.49
2023-01-21T22:48:53.498Z,-1.47
2023-01-21T22:51:23.257Z,-1.48
2023-01-21T22:53:52.175Z,-1.44
2023-01-21T22:56:23.606Z,-1.43
2023-01-21T22:58:59.939Z,-1.51
2023-01-21T23:01:31.685Z,-1.51
2023-01-21T23:04:00.363Z,-1.45
2023-01-21T23:06:28.736Z,-1.46
2023-01-21T23:08:56.297Z,-1.53
2023-01-21T23:11:23.925Z,-1.55
2023-01-21T23:13:53.394Z,-1.60
2023-01-21T23:16:21.763Z,-1.58
2023-01-21T23:18:49.724Z,-1.59
2023-01-21T23:21:20.316Z,-1.58
2023-01-21T23:23:48.596Z,-1.54
2023-01-21T23:26:18.483Z,-1.60
2023-01-21T23:28:46.540Z,-1.58
2023-01-21T23:31:16.469Z,-1.54
2023-01-21T23:33:44.164Z,-1.53
2023-01-21T23:36:13.743Z,-1.39
2023-01-21T23:38:42.084Z,-1.39
2023-01-21T23:41:12.460Z,-1.47
2023-01-21T23:43:40.852Z,-1.48
2023-01-21T23:46:12.147Z,-1.49
2023-01-21T23:48:39.963Z,-1.53
2023-01-21T23:51:11.116Z,-1.50
2023-01-21T23:53:38.651Z,-1.52
2023-01-21T23:56:09.944Z,-1.54
2023-01-21T23:58:37.424Z,-1.49
